sensor_id;sensor_type;location;lat;lon;timestamp;P1;durP1;ratioP1;P2;durP2;ratioP2
9140;SDS011;46330;50.822;7.126;2023-02-07T00:01:22;20.50;;;8.65;;
9140;SDS011;46330;50.822;7.126;2023-02-07T00:03:51;18.35;;;8.50;;
9140;SDS011;46330;50.822;7.126;2023-02-07T00:06:22;17.13;;;8.32;;
9140;SDS011;46330;50.822;7.126;2023-02-07T00:08:52;25.98;;;8.43;;
9140;SDS011;46330;50.822;7.126;2023-02-07T00:11:21;17.90;;;8.50;;
9140;SDS011;46330;50.822;7.126;2023-02-07T00:13:52;17.67;;;8.07;;
9140;SDS011;46330;50.822;7.126;2023-02-07T00:16:21;16.77;;;7.60;;
9140;SDS011;46330;50.822;7.126;2023-02-07T00:18:50;17.83;;;8.35;;
9140;SDS011;46330;50.822;7.126;2023-02-07T00:21:19;20.15;;;7.80;;
9140;SDS011;46330;50.822;7.126;2023-02-07T00:23:49;17.75;;;8.68;;
9140;SDS011;46330;50.822;7.126;2023-02-07T00:26:18;15.10;;;7.50;;
9140;SDS011;46330;50.822;7.126;2023-02-07T00:28:47;15.93;;;7.53;;
9140;SDS011;46330;50.822;7.126;2023-02-07T00:31:18;14.90;;;7.90;;
9140;SDS011;46330;50.822;7.126;2023-02-07T00:33:49;16.13;;;7.45;;
9140;SDS011;46330;50.822;7.126;2023-02-07T00:36:18;19.30;;;7.95;;
9140;SDS011;46330;50.822;7.126;2023-02-07T00:38:48;18.50;;;8.02;;
9140;SDS011;46330;50.822;7.126;2023-02-07T00:41:16;18.65;;;8.10;;
9140;SDS011;46330;50.822;7.126;2023-02-07T00:43:45;19.70;;;8.70;;
9140;SDS011;46330;50.822;7.126;2023-02-07T00:46:14;17.25;;;7.70;;
9140;SDS011;46330;50.822;7.126;2023-02-07T00:48:44;14.90;;;8.02;;
9140;SDS011;46330;50.822;7.126;2023-02-07T00:51:12;16.38;;;7.68;;
9140;SDS011;46330;50.822;7.126;2023-02-07T00:53:43;19.15;;;7.75;;
9140;SDS011;46330;50.822;7.126;2023-02-07T00:56:11;14.50;;;7.05;;
9140;SDS011;46330;50.822;7.126;2023-02-07T00:58:39;18.60;;;7.13;;
9140;SDS011;46330;50.822;7.126;2023-02-07T01:01:07;17.48;;;7.43;;
9140;SDS011;46330;50.822;7.126;2023-02-07T01:03:35;22.15;;;8.52;;
9140;SDS011;46330;50.822;7.126;2023-02-07T01:06:05;16.13;;;7.75;;
9140;SDS011;46330;50.822;7.126;2023-02-07T01:08:33;18.00;;;8.10;;
9140;SDS011;46330;50.822;7.126;2023-02-07T01:11:03;19.02;;;7.72;;
9140;SDS011;46330;50.822;7.126;2023-02-07T01:13:33;15.13;;;7.80;;
9140;SDS011;46330;50.822;7.126;2023-02-07T01:16:01;15.60;;;7.97;;
9140;SDS011;46330;50.822;7.126;2023-02-07T01:18:29;13.88;;;7.63;;
9140;SDS011;46330;50.822;7.126;2023-02-07T01:20:58;17.58;;;7.28;;
9140;SDS011;46330;50.822;7.126;2023-02-07T01:23:27;17.98;;;8.15;;
9140;SDS011;46330;50.822;7.126;2023-02-07T01:25:55;16.38;;;8.20;;
9140;SDS011;46330;50.822;7.126;2023-02-07T01:28:23;18.25;;;8.27;;
9140;SDS011;46330;50.822;7.126;2023-02-07T01:30:53;17.65;;;8.05;;
9140;SDS011;46330;50.822;7.126;2023-02-07T01:33:21;15.32;;;7.18;;
9140;SDS011;46330;50.822;7.126;2023-02-07T01:35:49;15.80;;;8.25;;
9140;SDS011;46330;50.822;7.126;2023-02-07T01:38:17;15.93;;;8.35;;
9140;SDS011;46330;50.822;7.126;2023-02-07T01:40:46;16.67;;;8.32;;
9140;SDS011;46330;50.822;7.126;2023-02-07T01:43:14;16.67;;;7.53;;
9140;SDS011;46330;50.822;7.126;2023-02-07T01:45:46;13.48;;;6.68;;
9140;SDS011;46330;50.822;7.126;2023-02-07T01:48:14;18.13;;;7.88;;
9140;SDS011;46330;50.822;7.126;2023-02-07T01:50:47;23.92;;;11.05;;
9140;SDS011;46330;50.822;7.126;2023-02-07T01:53:18;54.70;;;18.60;;
9140;SDS011;46330;50.822;7.126;2023-02-07T01:55:51;24.50;;;10.77;;
9140;SDS011;46330;50.822;7.126;2023-02-07T01:58:23;18.20;;;8.18;;
9140;SDS011;46330;50.822;7.126;2023-02-07T02:00:51;20.80;;;10.20;;
9140;SDS011;46330;50.822;7.126;2023-02-07T02:03:20;18.27;;;9.60;;
9140;SDS011;46330;50.822;7.126;2023-02-07T02:05:48;19.70;;;8.40;;
9140;SDS011;46330;50.822;7.126;2023-02-07T02:08:20;16.88;;;7.38;;
9140;SDS011;46330;50.822;7.126;2023-02-07T02:11:01;16.23;;;6.78;;
9140;SDS011;46330;50.822;7.126;2023-02-07T02:13:46;12.73;;;7.13;;
9140;SDS011;46330;50.822;7.126;2023-02-07T02:16:21;16.35;;;7.00;;
9140;SDS011;46330;50.822;7.126;2023-02-07T02:19:00;16.35;;;8.25;;
9140;SDS011;46330;50.822;7.126;2023-02-07T02:21:58;17.85;;;8.38;;
9140;SDS011;46330;50.822;7.126;2023-02-07T02:24:56;17.13;;;7.63;;
9140;SDS011;46330;50.822;7.126;2023-02-07T02:28:10;12.45;;;7.05;;
9140;SDS011;46330;50.822;7.126;2023-02-07T02:31:11;16.85;;;6.25;;
9140;SDS011;46330;50.822;7.126;2023-02-07T02:33:53;14.88;;;6.97;;
9140;SDS011;46330;50.822;7.126;2023-02-07T02:36:27;12.63;;;6.88;;
9140;SDS011;46330;50.822;7.126;2023-02-07T02:39:02;13.93;;;7.18;;
9140;SDS011;46330;50.822;7.126;2023-02-07T02:41:39;16.67;;;7.15;;
9140;SDS011;46330;50.822;7.126;2023-02-07T02:44:15;12.85;;;6.28;;
9140;SDS011;46330;50.822;7.126;2023-02-07T02:46:46;14.60;;;7.03;;
9140;SDS011;46330;50.822;7.126;2023-02-07T02:49:18;15.77;;;7.60;;
9140;SDS011;46330;50.822;7.126;2023-02-07T02:51:48;12.57;;;6.55;;
9140;SDS011;46330;50.822;7.126;2023-02-07T02:54:26;15.75;;;6.97;;
9140;SDS011;46330;50.822;7.126;2023-02-07T02:57:10;12.98;;;6.38;;
9140;SDS011;46330;50.822;7.126;2023-02-07T02:59:49;17.95;;;7.13;;
9140;SDS011;46330;50.822;7.126;2023-02-07T03:02:34;19.08;;;6.97;;
9140;SDS011;46330;50.822;7.126;2023-02-07T03:05:13;15.27;;;7.07;;
9140;SDS011;46330;50.822;7.126;2023-02-07T03:07:54;12.35;;;6.60;;
9140;SDS011;46330;50.822;7.126;2023-02-07T03:10:34;12.60;;;5.95;;
9140;SDS011;46330;50.822;7.126;2023-02-07T03:13:11;10.10;;;6.07;;
9140;SDS011;46330;50.822;7.126;2023-02-07T03:15:46;16.23;;;7.70;;
9140;SDS011;46330;50.822;7.126;2023-02-07T03:18:23;12.43;;;6.13;;
9140;SDS011;46330;50.822;7.126;2023-02-07T03:20:57;16.38;;;7.00;;
9140;SDS011;46330;50.822;7.126;2023-02-07T03:23:29;12.10;;;6.18;;
9140;SDS011;46330;50.822;7.126;2023-02-07T03:25:59;11.95;;;6.05;;
9140;SDS011;46330;50.822;7.126;2023-02-07T03:28:30;13.13;;;6.13;;
9140;SDS011;46330;50.822;7.126;2023-02-07T03:31:00;15.60;;;5.82;;
9140;SDS011;46330;50.822;7.126;2023-02-07T03:33:31;11.55;;;5.63;;
9140;SDS011;46330;50.822;7.126;2023-02-07T03:36:01;14.20;;;6.75;;
9140;SDS011;46330;50.822;7.126;2023-02-07T03:38:36;13.80;;;6.22;;
9140;SDS011;46330;50.822;7.126;2023-02-07T03:41:05;11.25;;;6.38;;
9140;SDS011;46330;50.822;7.126;2023-02-07T03:43:37;12.20;;;5.80;;
9140;SDS011;46330;50.822;7.126;2023-02-07T03:46:06;11.80;;;6.25;;
9140;SDS011;46330;50.822;7.126;2023-02-07T03:48:35;13.38;;;6.28;;
9140;SDS011;46330;50.822;7.126;2023-02-07T03:51:05;12.00;;;5.80;;
9140;SDS011;46330;50.822;7.126;2023-02-07T03:53:33;12.35;;;5.80;;
9140;SDS011;46330;50.822;7.126;2023-02-07T03:56:01;11.05;;;5.68;;
9140;SDS011;46330;50.822;7.126;2023-02-07T03:58:29;13.27;;;6.15;;
9140;SDS011;46330;50.822;7.126;2023-02-07T04:00:57;13.52;;;6.30;;
9140;SDS011;46330;50.822;7.126;2023-02-07T04:03:25;9.88;;;5.45;;
9140;SDS011;46330;50.822;7.126;2023-02-07T04:05:53;14.93;;;6.78;;
9140;SDS011;46330;50.822;7.126;2023-02-07T04:08:22;11.95;;;5.95;;
9140;SDS011;46330;50.822;7.126;2023-02-07T04:10:56;9.93;;;6.35;;
9140;SDS011;46330;50.822;7.126;2023-02-07T04:13:25;11.20;;;5.78;;
9140;SDS011;46330;50.822;7.126;2023-02-07T04:15:53;11.23;;;6.30;;
9140;SDS011;46330;50.822;7.126;2023-02-07T04:18:21;12.32;;;6.53;;
9140;SDS011;46330;50.822;7.126;2023-02-07T04:20:48;10.68;;;6.28;;
9140;SDS011;46330;50.822;7.126;2023-02-07T04:23:16;12.98;;;6.28;;
9140;SDS011;46330;50.822;7.126;2023-02-07T04:25:45;11.70;;;5.95;;
9140;SDS011;46330;50.822;7.126;2023-02-07T04:28:14;16.55;;;6.55;;
9140;SDS011;46330;50.822;7.126;2023-02-07T04:30:42;13.77;;;6.55;;
9140;SDS011;46330;50.822;7.126;2023-02-07T04:33:10;14.45;;;7.05;;
9140;SDS011;46330;50.822;7.126;2023-02-07T04:35:38;11.10;;;6.18;;
9140;SDS011;46330;50.822;7.126;2023-02-07T04:38:05;13.10;;;6.53;;
9140;SDS011;46330;50.822;7.126;2023-02-07T04:40:33;14.10;;;7.00;;
9140;SDS011;46330;50.822;7.126;2023-02-07T04:43:03;13.18;;;6.13;;
9140;SDS011;46330;50.822;7.126;2023-02-07T04:45:30;12.75;;;6.50;;
9140;SDS011;46330;50.822;7.126;2023-02-07T04:47:58;11.43;;;6.30;;
9140;SDS011;46330;50.822;7.126;2023-02-07T04:50:26;15.20;;;6.88;;
9140;SDS011;46330;50.822;7.126;2023-02-07T04:52:54;17.08;;;8.05;;
9140;SDS011;46330;50.822;7.126;2023-02-07T04:55:22;14.80;;;7.40;;
9140;SDS011;46330;50.822;7.126;2023-02-07T04:57:50;16.00;;;6.88;;
9140;SDS011;46330;50.822;7.126;2023-02-07T05:00:19;13.45;;;6.30;;
9140;SDS011;46330;50.822;7.126;2023-02-07T05:02:48;14.13;;;6.80;;
9140;SDS011;46330;50.822;7.126;2023-02-07T05:05:15;12.10;;;5.45;;
9140;SDS011;46330;50.822;7.126;2023-02-07T05:07:43;23.45;;;10.50;;
9140;SDS011;46330;50.822;7.126;2023-02-07T05:10:11;25.52;;;10.35;;
9140;SDS011;46330;50.822;7.126;2023-02-07T05:12:39;16.13;;;8.65;;
9140;SDS011;46330;50.822;7.126;2023-02-07T05:15:07;12.25;;;6.82;;
9140;SDS011;46330;50.822;7.126;2023-02-07T05:17:37;12.35;;;5.70;;
9140;SDS011;46330;50.822;7.126;2023-02-07T05:20:06;12.80;;;5.68;;
9140;SDS011;46330;50.822;7.126;2023-02-07T05:22:35;12.82;;;6.00;;
9140;SDS011;46330;50.822;7.126;2023-02-07T05:25:03;12.50;;;6.20;;
9140;SDS011;46330;50.822;7.126;2023-02-07T05:27:31;14.55;;;6.20;;
9140;SDS011;46330;50.822;7.126;2023-02-07T05:29:59;10.95;;;6.20;;
9140;SDS011;46330;50.822;7.126;2023-02-07T05:32:27;12.73;;;6.28;;
9140;SDS011;46330;50.822;7.126;2023-02-07T05:35:14;11.63;;;6.30;;
9140;SDS011;46330;50.822;7.126;2023-02-07T05:37:42;13.60;;;6.30;;
9140;SDS011;46330;50.822;7.126;2023-02-07T05:40:10;15.32;;;7.07;;
9140;SDS011;46330;50.822;7.126;2023-02-07T05:42:39;18.27;;;8.23;;
9140;SDS011;46330;50.822;7.126;2023-02-07T05:45:07;22.90;;;10.98;;
9140;SDS011;46330;50.822;7.126;2023-02-07T05:47:35;14.50;;;8.23;;
9140;SDS011;46330;50.822;7.126;2023-02-07T05:50:03;16.63;;;8.10;;
9140;SDS011;46330;50.822;7.126;2023-02-07T05:52:36;18.15;;;7.70;;
9140;SDS011;46330;50.822;7.126;2023-02-07T05:55:05;17.63;;;8.02;;
9140;SDS011;46330;50.822;7.126;2023-02-07T05:57:33;17.48;;;8.25;;
9140;SDS011;46330;50.822;7.126;2023-02-07T06:00:02;26.40;;;11.48;;
9140;SDS011;46330;50.822;7.126;2023-02-07T06:02:39;17.45;;;9.60;;
9140;SDS011;46330;50.822;7.126;2023-02-07T06:05:07;18.67;;;9.02;;
9140;SDS011;46330;50.822;7.126;2023-02-07T06:07:40;20.52;;;9.55;;
9140;SDS011;46330;50.822;7.126;2023-02-07T06:10:09;33.15;;;12.63;;
9140;SDS011;46330;50.822;7.126;2023-02-07T06:12:38;36.97;;;14.13;;
9140;SDS011;46330;50.822;7.126;2023-02-07T06:15:06;18.65;;;8.30;;
9140;SDS011;46330;50.822;7.126;2023-02-07T06:17:35;17.42;;;7.93;;
9140;SDS011;46330;50.822;7.126;2023-02-07T06:20:03;17.58;;;8.13;;
9140;SDS011;46330;50.822;7.126;2023-02-07T06:22:31;16.17;;;7.90;;
9140;SDS011;46330;50.822;7.126;2023-02-07T06:25:01;18.88;;;8.43;;
9140;SDS011;46330;50.822;7.126;2023-02-07T06:27:28;38.28;;;12.95;;
9140;SDS011;46330;50.822;7.126;2023-02-07T06:29:56;74.47;;;16.95;;
9140;SDS011;46330;50.822;7.126;2023-02-07T06:32:24;46.75;;;14.75;;
9140;SDS011;46330;50.822;7.126;2023-02-07T06:34:52;20.02;;;9.55;;
9140;SDS011;46330;50.822;7.126;2023-02-07T06:37:20;26.33;;;8.82;;
9140;SDS011;46330;50.822;7.126;2023-02-07T06:39:48;52.65;;;12.90;;
9140;SDS011;46330;50.822;7.126;2023-02-07T06:42:17;28.23;;;8.65;;
9140;SDS011;46330;50.822;7.126;2023-02-07T06:44:45;15.65;;;7.28;;
9140;SDS011;46330;50.822;7.126;2023-02-07T06:47:12;11.45;;;7.32;;
9140;SDS011;46330;50.822;7.126;2023-02-07T06:49:41;15.77;;;7.53;;
9140;SDS011;46330;50.822;7.126;2023-02-07T06:52:09;12.80;;;6.75;;
9140;SDS011;46330;50.822;7.126;2023-02-07T06:54:37;10.80;;;6.10;;
9140;SDS011;46330;50.822;7.126;2023-02-07T06:57:05;9.32;;;5.38;;
9140;SDS011;46330;50.822;7.126;2023-02-07T06:59:34;9.60;;;5.60;;
9140;SDS011;46330;50.822;7.126;2023-02-07T07:02:10;12.18;;;6.45;;
9140;SDS011;46330;50.822;7.126;2023-02-07T07:04:38;15.15;;;7.07;;
9140;SDS011;46330;50.822;7.126;2023-02-07T07:07:06;11.43;;;6.22;;
9140;SDS011;46330;50.822;7.126;2023-02-07T07:09:34;16.80;;;6.20;;
9140;SDS011;46330;50.822;7.126;2023-02-07T07:12:02;13.32;;;6.53;;
9140;SDS011;46330;50.822;7.126;2023-02-07T07:14:31;11.35;;;6.10;;
9140;SDS011;46330;50.822;7.126;2023-02-07T07:17:00;14.68;;;6.28;;
9140;SDS011;46330;50.822;7.126;2023-02-07T07:19:28;27.55;;;10.60;;
9140;SDS011;46330;50.822;7.126;2023-02-07T07:21:56;17.25;;;7.53;;
9140;SDS011;46330;50.822;7.126;2023-02-07T07:24:24;11.20;;;5.90;;
9140;SDS011;46330;50.822;7.126;2023-02-07T07:26:52;10.80;;;6.38;;
9140;SDS011;46330;50.822;7.126;2023-02-07T07:29:21;9.40;;;5.65;;
9140;SDS011;46330;50.822;7.126;2023-02-07T07:31:49;21.60;;;7.75;;
9140;SDS011;46330;50.822;7.126;2023-02-07T07:34:18;12.70;;;5.88;;
9140;SDS011;46330;50.822;7.126;2023-02-07T07:36:46;16.40;;;7.00;;
9140;SDS011;46330;50.822;7.126;2023-02-07T07:39:14;30.10;;;9.68;;
9140;SDS011;46330;50.822;7.126;2023-02-07T07:41:43;15.68;;;7.40;;
9140;SDS011;46330;50.822;7.126;2023-02-07T07:44:18;14.63;;;6.55;;
9140;SDS011;46330;50.822;7.126;2023-02-07T07:46:46;10.52;;;4.80;;
9140;SDS011;46330;50.822;7.126;2023-02-07T07:49:14;10.95;;;5.07;;
9140;SDS011;46330;50.822;7.126;2023-02-07T07:51:43;10.13;;;5.38;;
9140;SDS011;46330;50.822;7.126;2023-02-07T07:54:12;8.75;;;4.80;;
9140;SDS011;46330;50.822;7.126;2023-02-07T07:56:40;12.40;;;4.60;;
9140;SDS011;46330;50.822;7.126;2023-02-07T07:59:08;10.70;;;5.35;;
9140;SDS011;46330;50.822;7.126;2023-02-07T08:01:48;9.05;;;5.60;;
9140;SDS011;46330;50.822;7.126;2023-02-07T08:04:16;9.90;;;6.22;;
9140;SDS011;46330;50.822;7.126;2023-02-07T08:06:45;7.85;;;6.30;;
9140;SDS011;46330;50.822;7.126;2023-02-07T08:09:14;9.20;;;6.50;;
9140;SDS011;46330;50.822;7.126;2023-02-07T08:11:42;9.43;;;6.97;;
9140;SDS011;46330;50.822;7.126;2023-02-07T08:14:09;10.63;;;7.13;;
9140;SDS011;46330;50.822;7.126;2023-02-07T08:16:37;8.70;;;7.80;;
9140;SDS011;46330;50.822;7.126;2023-02-07T08:19:05;9.85;;;7.90;;
9140;SDS011;46330;50.822;7.126;2023-02-07T08:21:33;9.70;;;8.80;;
9140;SDS011;46330;50.822;7.126;2023-02-07T08:24:03;10.07;;;8.60;;
9140;SDS011;46330;50.822;7.126;2023-02-07T08:26:31;11.30;;;10.30;;
9140;SDS011;46330;50.822;7.126;2023-02-07T08:28:58;10.15;;;9.07;;
9140;SDS011;46330;50.822;7.126;2023-02-07T08:31:26;11.63;;;10.52;;
9140;SDS011;46330;50.822;7.126;2023-02-07T08:33:54;12.15;;;11.23;;
9140;SDS011;46330;50.822;7.126;2023-02-07T08:36:22;8.48;;;5.75;;
9140;SDS011;46330;50.822;7.126;2023-02-07T08:38:50;6.55;;;3.95;;
9140;SDS011;46330;50.822;7.126;2023-02-07T08:41:20;6.07;;;4.10;;
9140;SDS011;46330;50.822;7.126;2023-02-07T08:43:48;5.60;;;3.83;;
9140;SDS011;46330;50.822;7.126;2023-02-07T08:46:15;6.32;;;3.38;;
9140;SDS011;46330;50.822;7.126;2023-02-07T08:48:43;4.88;;;3.53;;
9140;SDS011;46330;50.822;7.126;2023-02-07T08:51:11;6.55;;;3.55;;
9140;SDS011;46330;50.822;7.126;2023-02-07T08:53:39;6.28;;;3.70;;
9140;SDS011;46330;50.822;7.126;2023-02-07T08:56:07;4.78;;;3.58;;
9140;SDS011;46330;50.822;7.126;2023-02-07T08:58:37;6.07;;;3.50;;
9140;SDS011;46330;50.822;7.126;2023-02-07T09:01:06;8.73;;;3.97;;
9140;SDS011;46330;50.822;7.126;2023-02-07T09:03:36;6.35;;;4.30;;
9140;SDS011;46330;50.822;7.126;2023-02-07T09:06:04;6.88;;;4.40;;
9140;SDS011;46330;50.822;7.126;2023-02-07T09:08:32;8.10;;;5.00;;
9140;SDS011;46330;50.822;7.126;2023-02-07T09:11:00;6.65;;;3.83;;
9140;SDS011;46330;50.822;7.126;2023-02-07T09:13:34;7.97;;;5.10;;
9140;SDS011;46330;50.822;7.126;2023-02-07T09:16:04;8.32;;;4.40;;
9140;SDS011;46330;50.822;7.126;2023-02-07T09:18:32;7.22;;;4.25;;
9140;SDS011;46330;50.822;7.126;2023-02-07T09:21:00;5.97;;;3.63;;
9140;SDS011;46330;50.822;7.126;2023-02-07T09:23:28;5.88;;;4.10;;
9140;SDS011;46330;50.822;7.126;2023-02-07T09:25:59;7.68;;;4.30;;
9140;SDS011;46330;50.822;7.126;2023-02-07T09:28:28;6.63;;;4.32;;
9140;SDS011;46330;50.822;7.126;2023-02-07T09:30:56;6.25;;;4.53;;
9140;SDS011;46330;50.822;7.126;2023-02-07T09:33:26;6.80;;;4.57;;
9140;SDS011;46330;50.822;7.126;2023-02-07T09:35:55;7.03;;;4.57;;
9140;SDS011;46330;50.822;7.126;2023-02-07T09:38:23;6.53;;;4.15;;
9140;SDS011;46330;50.822;7.126;2023-02-07T09:40:52;6.75;;;4.63;;
9140;SDS011;46330;50.822;7.126;2023-02-07T09:43:25;7.53;;;4.88;;
9140;SDS011;46330;50.822;7.126;2023-02-07T09:46:04;6.00;;;4.15;;
9140;SDS011;46330;50.822;7.126;2023-02-07T09:48:43;7.97;;;5.18;;
9140;SDS011;46330;50.822;7.126;2023-02-07T09:51:16;4.93;;;3.40;;
9140;SDS011;46330;50.822;7.126;2023-02-07T09:53:48;8.85;;;5.30;;
9140;SDS011;46330;50.822;7.126;2023-02-07T09:56:20;7.97;;;5.20;;
9140;SDS011;46330;50.822;7.126;2023-02-07T09:58:54;9.40;;;5.50;;
9140;SDS011;46330;50.822;7.126;2023-02-07T10:01:28;6.90;;;4.82;;
9140;SDS011;46330;50.822;7.126;2023-02-07T10:04:05;7.72;;;4.88;;
9140;SDS011;46330;50.822;7.126;2023-02-07T10:06:47;14.70;;;5.53;;
9140;SDS011;46330;50.822;7.126;2023-02-07T10:09:18;6.22;;;4.65;;
9140;SDS011;46330;50.822;7.126;2023-02-07T10:11:49;8.38;;;5.00;;
9140;SDS011;46330;50.822;7.126;2023-02-07T10:14:24;7.43;;;4.63;;
9140;SDS011;46330;50.822;7.126;2023-02-07T10:17:04;9.45;;;5.40;;
9140;SDS011;46330;50.822;7.126;2023-02-07T10:19:59;7.78;;;5.32;;
9140;SDS011;46330;50.822;7.126;2023-02-07T10:22:40;8.75;;;5.57;;
9140;SDS011;46330;50.822;7.126;2023-02-07T10:25:22;10.30;;;5.83;;
9140;SDS011;46330;50.822;7.126;2023-02-07T10:28:03;7.15;;;4.95;;
9140;SDS011;46330;50.822;7.126;2023-02-07T10:30:53;8.55;;;5.57;;
9140;SDS011;46330;50.822;7.126;2023-02-07T10:33:28;7.90;;;5.43;;
9140;SDS011;46330;50.822;7.126;2023-02-07T10:36:01;9.30;;;6.00;;
9140;SDS011;46330;50.822;7.126;2023-02-07T10:38:34;8.85;;;5.80;;
9140;SDS011;46330;50.822;7.126;2023-02-07T10:41:09;7.97;;;5.90;;
9140;SDS011;46330;50.822;7.126;2023-02-07T10:43:43;9.55;;;5.90;;
9140;SDS011;46330;50.822;7.126;2023-02-07T10:46:14;8.70;;;5.85;;
9140;SDS011;46330;50.822;7.126;2023-02-07T10:48:45;8.02;;;5.40;;
9140;SDS011;46330;50.822;7.126;2023-02-07T10:51:18;10.73;;;6.38;;
9140;SDS011;46330;50.822;7.126;2023-02-07T10:53:59;7.88;;;5.45;;
9140;SDS011;46330;50.822;7.126;2023-02-07T10:56:33;8.23;;;5.20;;
9140;SDS011;46330;50.822;7.126;2023-02-07T10:59:04;8.63;;;5.80;;
9140;SDS011;46330;50.822;7.126;2023-02-07T11:01:32;5.85;;;4.03;;
9140;SDS011;46330;50.822;7.126;2023-02-07T11:04:01;10.07;;;6.13;;
9140;SDS011;46330;50.822;7.126;2023-02-07T11:06:31;9.98;;;5.10;;
9140;SDS011;46330;50.822;7.126;2023-02-07T11:09:10;8.90;;;5.90;;
9140;SDS011;46330;50.822;7.126;2023-02-07T11:11:48;6.07;;;3.47;;
9140;SDS011;46330;50.822;7.126;2023-02-07T11:14:17;7.50;;;5.22;;
9140;SDS011;46330;50.822;7.126;2023-02-07T11:16:51;8.18;;;4.97;;
9140;SDS011;46330;50.822;7.126;2023-02-07T11:19:21;7.22;;;4.72;;
9140;SDS011;46330;50.822;7.126;2023-02-07T11:21:53;7.40;;;4.95;;
9140;SDS011;46330;50.822;7.126;2023-02-07T11:24:33;7.15;;;4.95;;
9140;SDS011;46330;50.822;7.126;2023-02-07T11:27:02;8.63;;;5.18;;
9140;SDS011;46330;50.822;7.126;2023-02-07T11:29:33;7.28;;;5.03;;
9140;SDS011;46330;50.822;7.126;2023-02-07T11:32:06;8.70;;;5.40;;
9140;SDS011;46330;50.822;7.126;2023-02-07T11:34:40;8.43;;;5.43;;
9140;SDS011;46330;50.822;7.126;2023-02-07T11:37:28;7.07;;;5.00;;
9140;SDS011;46330;50.822;7.126;2023-02-07T11:42:49;7.05;;;4.70;;
9140;SDS011;46330;50.822;7.126;2023-02-07T11:45:24;9.82;;;5.35;;
9140;SDS011;46330;50.822;7.126;2023-02-07T11:47:54;8.27;;;5.65;;
9140;SDS011;46330;50.822;7.126;2023-02-07T11:50:25;9.93;;;6.20;;
9140;SDS011;46330;50.822;7.126;2023-02-07T11:52:58;8.30;;;5.25;;
9140;SDS011;46330;50.822;7.126;2023-02-07T11:55:29;8.30;;;5.88;;
9140;SDS011;46330;50.822;7.126;2023-02-07T11:58:01;5.78;;;4.43;;
9140;SDS011;46330;50.822;7.126;2023-02-07T12:00:36;9.95;;;5.38;;
9140;SDS011;46330;50.822;7.126;2023-02-07T12:03:05;7.63;;;5.00;;
9140;SDS011;46330;50.822;7.126;2023-02-07T12:05:37;7.57;;;5.00;;
9140;SDS011;46330;50.822;7.126;2023-02-07T12:08:10;8.10;;;4.80;;
9140;SDS011;46330;50.822;7.126;2023-02-07T12:10:43;7.10;;;4.70;;
9140;SDS011;46330;50.822;7.126;2023-02-07T12:13:16;7.30;;;4.72;;
9140;SDS011;46330;50.822;7.126;2023-02-07T12:15:47;8.77;;;5.38;;
9140;SDS011;46330;50.822;7.126;2023-02-07T12:18:21;7.93;;;5.43;;
9140;SDS011;46330;50.822;7.126;2023-02-07T12:20:55;8.90;;;4.80;;
9140;SDS011;46330;50.822;7.126;2023-02-07T12:23:33;7.88;;;4.80;;
9140;SDS011;46330;50.822;7.126;2023-02-07T12:26:13;7.82;;;4.55;;
9140;SDS011;46330;50.822;7.126;2023-02-07T12:28:49;9.30;;;5.07;;
9140;SDS011;46330;50.822;7.126;2023-02-07T12:31:40;10.10;;;5.28;;
9140;SDS011;46330;50.822;7.126;2023-02-07T12:34:16;8.45;;;5.10;;
9140;SDS011;46330;50.822;7.126;2023-02-07T12:36:49;7.00;;;4.55;;
9140;SDS011;46330;50.822;7.126;2023-02-07T12:39:26;6.68;;;4.90;;
9140;SDS011;46330;50.822;7.126;2023-02-07T12:44:30;6.68;;;4.28;;
9140;SDS011;46330;50.822;7.126;2023-02-07T12:47:03;6.53;;;4.35;;
9140;SDS011;46330;50.822;7.126;2023-02-07T12:49:46;7.30;;;4.03;;
9140;SDS011;46330;50.822;7.126;2023-02-07T12:52:29;8.07;;;4.70;;
9140;SDS011;46330;50.822;7.126;2023-02-07T12:55:13;5.80;;;3.97;;
9140;SDS011;46330;50.822;7.126;2023-02-07T12:57:53;6.53;;;4.32;;
9140;SDS011;46330;50.822;7.126;2023-02-07T13:00:37;7.43;;;4.60;;
9140;SDS011;46330;50.822;7.126;2023-02-07T13:03:18;8.32;;;5.00;;
9140;SDS011;46330;50.822;7.126;2023-02-07T13:06:00;7.57;;;4.90;;
9140;SDS011;46330;50.822;7.126;2023-02-07T13:08:40;8.43;;;4.90;;
9140;SDS011;46330;50.822;7.126;2023-02-07T13:11:20;5.88;;;4.15;;
9140;SDS011;46330;50.822;7.126;2023-02-07T13:13:59;7.40;;;4.63;;
9140;SDS011;46330;50.822;7.126;2023-02-07T13:16:44;9.32;;;5.75;;
9140;SDS011;46330;50.822;7.126;2023-02-07T13:19:21;6.75;;;4.47;;
9140;SDS011;46330;50.822;7.126;2023-02-07T13:21:59;6.88;;;4.40;;
9140;SDS011;46330;50.822;7.126;2023-02-07T13:24:32;8.43;;;4.53;;
9140;SDS011;46330;50.822;7.126;2023-02-07T13:27:06;6.53;;;4.10;;
9140;SDS011;46330;50.822;7.126;2023-02-07T13:29:40;6.32;;;4.07;;
9140;SDS011;46330;50.822;7.126;2023-02-07T13:32:09;6.80;;;4.30;;
9140;SDS011;46330;50.822;7.126;2023-02-07T13:34:41;5.45;;;3.75;;
9140;SDS011;46330;50.822;7.126;2023-02-07T13:37:14;6.65;;;3.70;;
9140;SDS011;46330;50.822;7.126;2023-02-07T13:39:48;5.97;;;3.85;;
9140;SDS011;46330;50.822;7.126;2023-02-07T13:42:27;5.70;;;4.05;;
9140;SDS011;46330;50.822;7.126;2023-02-07T13:45:05;8.27;;;3.72;;
9140;SDS011;46330;50.822;7.126;2023-02-07T13:47:47;6.18;;;3.72;;
9140;SDS011;46330;50.822;7.126;2023-02-07T13:53:24;7.05;;;4.40;;
9140;SDS011;46330;50.822;7.126;2023-02-07T13:56:00;6.05;;;3.83;;
9140;SDS011;46330;50.822;7.126;2023-02-07T14:01:44;6.57;;;4.05;;
9140;SDS011;46330;50.822;7.126;2023-02-07T14:04:17;5.95;;;3.92;;
9140;SDS011;46330;50.822;7.126;2023-02-07T14:06:55;7.10;;;3.85;;
9140;SDS011;46330;50.822;7.126;2023-02-07T14:09:30;5.85;;;3.95;;
9140;SDS011;46330;50.822;7.126;2023-02-07T14:12:01;7.72;;;4.65;;
9140;SDS011;46330;50.822;7.126;2023-02-07T14:14:34;7.00;;;4.10;;
9140;SDS011;46330;50.822;7.126;2023-02-07T14:17:04;6.82;;;4.03;;
9140;SDS011;46330;50.822;7.126;2023-02-07T14:22:24;8.73;;;5.88;;
9140;SDS011;46330;50.822;7.126;2023-02-07T14:25:16;6.18;;;3.70;;
9140;SDS011;46330;50.822;7.126;2023-02-07T14:28:07;5.40;;;3.63;;
9140;SDS011;46330;50.822;7.126;2023-02-07T14:36:39;6.13;;;3.60;;
9140;SDS011;46330;50.822;7.126;2023-02-07T14:39:26;5.65;;;3.65;;
9140;SDS011;46330;50.822;7.126;2023-02-07T14:42:00;7.93;;;3.90;;
9140;SDS011;46330;50.822;7.126;2023-02-07T14:44:38;6.88;;;3.60;;
9140;SDS011;46330;50.822;7.126;2023-02-07T14:47:14;7.78;;;3.97;;
9140;SDS011;46330;50.822;7.126;2023-02-07T14:49:47;4.40;;;3.15;;
9140;SDS011;46330;50.822;7.126;2023-02-07T14:52:20;5.60;;;3.30;;
9140;SDS011;46330;50.822;7.126;2023-02-07T14:54:51;5.75;;;3.67;;
9140;SDS011;46330;50.822;7.126;2023-02-07T14:57:28;6.05;;;3.65;;
9140;SDS011;46330;50.822;7.126;2023-02-07T15:00:04;5.78;;;3.60;;
9140;SDS011;46330;50.822;7.126;2023-02-07T15:02:51;8.43;;;5.60;;
9140;SDS011;46330;50.822;7.126;2023-02-07T15:05:22;7.00;;;4.40;;
9140;SDS011;46330;50.822;7.126;2023-02-07T15:07:54;6.85;;;3.60;;
9140;SDS011;46330;50.822;7.126;2023-02-07T15:10:33;5.57;;;3.60;;
9140;SDS011;46330;50.822;7.126;2023-02-07T15:13:14;8.15;;;4.43;;
9140;SDS011;46330;50.822;7.126;2023-02-07T15:15:47;10.90;;;5.43;;
9140;SDS011;46330;50.822;7.126;2023-02-07T15:18:20;6.35;;;3.80;;
9140;SDS011;46330;50.822;7.126;2023-02-07T15:20:51;8.93;;;4.03;;
9140;SDS011;46330;50.822;7.126;2023-02-07T15:23:24;7.43;;;3.97;;
9140;SDS011;46330;50.822;7.126;2023-02-07T15:25:53;24.02;;;12.85;;
9140;SDS011;46330;50.822;7.126;2023-02-07T15:28:22;7.28;;;4.30;;
9140;SDS011;46330;50.822;7.126;2023-02-07T15:30:54;7.63;;;4.65;;
9140;SDS011;46330;50.822;7.126;2023-02-07T15:33:25;7.80;;;5.13;;
9140;SDS011;46330;50.822;7.126;2023-02-07T15:35:54;7.32;;;4.45;;
9140;SDS011;46330;50.822;7.126;2023-02-07T15:38:23;13.88;;;6.72;;
9140;SDS011;46330;50.822;7.126;2023-02-07T15:40:53;10.05;;;6.25;;
9140;SDS011;46330;50.822;7.126;2023-02-07T15:43:26;6.38;;;3.80;;